Aeroporto :
LOGIN :

Iscrizione | Disclaimer

   EN    FR    IT 

 










Sommario :    VFR   VFR Marginale   IFR   IFR Intensivo   IFR Molto Intensivo
Visibilità : 
Base nubi : 
>= 8 km
>= 3000ft
5 / 8 km
1000 / 3000 ft
1500m / 5 km
500 / 1000 ft
800 / 1500m
200 / 500 ft
< 800m
< 200 ft
Simboli :   Temporali  Nebbia  Neve Forte  Precipitazioni Forti  Vento > 20 kt
SIGMETs :   Varie  Temporali  Ghiacco  Turbolenza  Onda orograficha  Ceneri Vulcaniche






- Altitudine del aeroporto : 939 ft


LKKB - Kbely Air Base

ULTIMO METAR :
  • 251500Z 23014KT 9999 -RA SCT030 BKN041 09/04 Q0998 NOSIG

METARs OBSOLETI :
  • 251400Z 23014KT 9999 -RA SCT027 BKN034 10/04 Q0999 NOSIG
  • 251300Z 22017KT 9999 SCT027 BKN030 OVC070 10/05 Q0999 NOSIG

TAF COR TAF LKKB
Valido dal 25 a 12 ore il 26 a 12 ore UTC


251100Z 2512/2612 20010KT 9999 BKN040
TEMPO 2512/2600 8000 RA BKN020
TEMPO 2512/2517 22014G24KT
TEMPO 2517/2610 22012G22KT
BECMG 2609/2611 25014KT



MetMap, La meteo Aeronautica in un colpo d'occhio ! - Copyright ORBIFLY Dicembre 2007 - Disclaimer

ORBIFLY MET'MAP TEAM :

Programmazione e sviluppo : Alexandra Zaïnal
Concezione : Baudouin d'Aumeries
Aiuto per la programmazione : Marc-Olivier Méhu
Supporto tecnico e logistico : Manuel Goepfert
Aiuto per la traduzione : Arnaldo La Scala

Contatto : metmap@orbifly.com




FONTI E CREDITI :

   NOAA